logo
Rechercher aéroport 
image banner adimage banner adimage banner ad
image banner ad

FADIAM - Diamond Valley

Situé à , South Africa

ICAO - , IATA -

Données fournies par Airmate  

Information générale

Coordonnées: S30°16'19" E29°23'50"
Élévation : 4999 feet MSL.
 
Voir autres Aéroports à Kwazulu-Natal

Données opérationnelles

Special qualification required
Heure actuelle UTC:
Heure actuelle locale:
Météo à : - ( 0 km )
METAR: UWWW 172047Z 09002MPS 9999 FEW033 25/17 Q1015 R15/150057 NOSIG RMK QFE749/0999
Voir NOTAMs / SUP AIP / TFR affectant cet aéroport [VIEW]
Fréquences de communication: [VIEW]

Pistes:

Identifiant RWYQFULongueur (ft)Largeur (ft)SurfaceLDA (ft)
12110°164066GRASS
30290°164066GRASS

Coordonnées de l'aéroport

Adresse: South Africa

Vue satellite de FADIAM